createdAt,value
2023-03-29T00:00:14.404Z,2.03
2023-03-29T00:02:41.885Z,2.13
2023-03-29T00:05:11.314Z,2.28
2023-03-29T00:07:38.455Z,3.20
2023-03-29T00:10:06.171Z,3.13
2023-03-29T00:12:36.214Z,3.90
2023-03-29T00:15:03.385Z,2.97
2023-03-29T00:17:30.803Z,2.60
2023-03-29T00:20:00.222Z,3.00
2023-03-29T00:22:27.260Z,3.65
2023-03-29T00:24:54.428Z,2.85
2023-03-29T00:27:21.884Z,2.83
2023-03-29T00:29:50.374Z,3.42
2023-03-29T00:32:17.447Z,3.13
2023-03-29T00:34:50.918Z,2.75
2023-03-29T00:37:18.973Z,3.08
2023-03-29T00:39:48.432Z,3.40
2023-03-29T00:42:16.551Z,3.50
2023-03-29T00:44:58.376Z,3.50
2023-03-29T00:47:27.596Z,3.47
2023-03-29T00:49:55.636Z,3.13
2023-03-29T00:52:30.382Z,3.83
2023-03-29T00:54:58.830Z,4.85
2023-03-29T00:57:30.155Z,3.80
2023-03-29T01:00:02.035Z,3.35
2023-03-29T01:02:35.031Z,2.40
2023-03-29T01:05:05.803Z,2.53
2023-03-29T01:07:35.454Z,3.05
2023-03-29T01:10:06.533Z,2.45
2023-03-29T01:12:36.257Z,2.30
2023-03-29T01:15:06.052Z,2.45
2023-03-29T01:17:33.369Z,2.70
2023-03-29T01:20:07.998Z,2.20
2023-03-29T01:22:42.765Z,1.65
2023-03-29T01:25:11.493Z,1.90
2023-03-29T01:27:51.917Z,1.63
2023-03-29T01:30:21.464Z,2.58
2023-03-29T01:32:57.203Z,1.88
2023-03-29T01:35:27.439Z,2.05
2023-03-29T01:37:59.204Z,1.80
2023-03-29T01:40:29.157Z,1.60
2023-03-29T01:43:01.164Z,1.63
2023-03-29T01:45:31.687Z,1.45
2023-03-29T01:48:01.223Z,1.35
2023-03-29T01:50:32.819Z,1.40
2023-03-29T01:53:02.880Z,1.13
2023-03-29T01:55:32.377Z,1.30
2023-03-29T01:58:02.119Z,1.00
2023-03-29T02:00:29.812Z,1.17
2023-03-29T02:03:00.444Z,0.95
2023-03-29T02:05:29.075Z,0.93
2023-03-29T02:07:57.908Z,1.08
2023-03-29T02:10:25.801Z,0.93
2023-03-29T02:12:53.226Z,1.02
2023-03-29T02:15:21.914Z,0.90
2023-03-29T02:17:49.513Z,1.10
2023-03-29T02:20:22.767Z,1.00
2023-03-29T02:22:54.774Z,1.00
2023-03-29T02:25:22.739Z,1.33
2023-03-29T02:27:49.938Z,1.50
2023-03-29T02:30:18.202Z,1.60
2023-03-29T02:32:51.464Z,1.67
2023-03-29T02:35:22.167Z,1.83
2023-03-29T02:37:51.422Z,1.20
2023-03-29T02:40:21.054Z,1.95
2023-03-29T02:42:51.944Z,1.38
2023-03-29T02:45:19.538Z,1.20
2023-03-29T02:47:49.264Z,1.38
2023-03-29T02:50:18.311Z,1.15
2023-03-29T02:52:52.412Z,1.60
2023-03-29T02:55:21.675Z,1.30
2023-03-29T02:57:48.993Z,1.15
2023-03-29T03:00:19.047Z,1.30
2023-03-29T03:02:47.248Z,1.45
2023-03-29T03:05:17.668Z,1.20
2023-03-29T03:07:44.607Z,1.30
2023-03-29T03:10:12.707Z,1.20
2023-03-29T03:12:39.826Z,1.13
2023-03-29T03:15:07.814Z,1.20
2023-03-29T03:17:40.066Z,1.30
2023-03-29T03:20:10.852Z,1.23
2023-03-29T03:22:39.702Z,1.27
2023-03-29T03:25:07.162Z,1.20
2023-03-29T03:27:34.484Z,1.70
2023-03-29T03:30:01.579Z,1.70
2023-03-29T03:32:28.867Z,1.65
2023-03-29T03:34:56.210Z,1.70
2023-03-29T03:37:23.729Z,1.60
2023-03-29T03:39:52.246Z,2.67
2023-03-29T03:42:19.299Z,2.28
2023-03-29T03:44:46.670Z,3.17
2023-03-29T03:47:16.444Z,2.85
2023-03-29T03:49:44.014Z,2.08
2023-03-29T03:52:12.499Z,1.90
2023-03-29T03:54:39.707Z,1.65
2023-03-29T03:57:08.135Z,1.58
2023-03-29T03:59:35.577Z,1.25
2023-03-29T04:02:03.691Z,1.90
2023-03-29T04:04:31.537Z,1.83
2023-03-29T04:07:03.729Z,1.40
2023-03-29T04:09:31.595Z,1.52
2023-03-29T04:11:59.334Z,1.50
2023-03-29T04:14:28.332Z,1.13
2023-03-29T04:16:55.843Z,1.92
2023-03-29T04:19:23.193Z,1.83
2023-03-29T04:21:51.800Z,1.80
2023-03-29T04:24:19.757Z,1.63
2023-03-29T04:26:48.893Z,1.58
2023-03-29T04:29:16.044Z,1.85
2023-03-29T04:31:44.501Z,2.10
2023-03-29T04:34:11.731Z,2.20
2023-03-29T04:36:39.097Z,2.00
2023-03-29T04:39:07.954Z,1.75
2023-03-29T04:41:36.011Z,2.13
2023-03-29T04:44:03.021Z,2.20
2023-03-29T04:46:30.708Z,2.55
2023-03-29T04:48:59.838Z,2.13
2023-03-29T04:51:27.802Z,2.42
2023-03-29T04:53:54.824Z,2.40
2023-03-29T04:56:24.041Z,2.60
2023-03-29T04:58:51.443Z,2.80
2023-03-29T05:01:18.474Z,2.33
2023-03-29T05:03:45.672Z,2.40
2023-03-29T05:06:14.146Z,2.85
2023-03-29T05:08:41.537Z,2.58
2023-03-29T05:11:09.274Z,2.60
2023-03-29T05:13:37.051Z,2.95
2023-03-29T05:16:05.431Z,2.20
2023-03-29T05:18:32.970Z,1.95
2023-03-29T05:21:00.401Z,2.05
2023-03-29T05:23:29.478Z,1.92
2023-03-29T05:25:58.823Z,2.15
2023-03-29T05:28:27.273Z,2.75
2023-03-29T05:31:01.737Z,2.70
2023-03-29T05:33:29.876Z,3.38
2023-03-29T05:36:00.729Z,3.83
2023-03-29T05:38:30.473Z,4.10
2023-03-29T05:40:57.853Z,4.20
2023-03-29T05:43:25.123Z,3.78
2023-03-29T05:45:53.197Z,4.82
2023-03-29T05:48:20.548Z,4.38
2023-03-29T05:50:54.032Z,3.95
2023-03-29T05:53:22.147Z,3.22
2023-03-29T05:55:52.322Z,3.00
2023-03-29T05:58:21.232Z,3.78
2023-03-29T06:00:51.967Z,3.60
2023-03-29T06:03:21.106Z,3.90
2023-03-29T06:05:50.007Z,3.83
2023-03-29T06:08:17.325Z,3.70
2023-03-29T06:10:44.764Z,4.38
2023-03-29T06:13:13.461Z,4.53
2023-03-29T06:15:40.425Z,4.70
2023-03-29T06:18:08.279Z,3.22
2023-03-29T06:20:35.478Z,2.10
2023-03-29T06:23:02.756Z,2.22
2023-03-29T06:25:30.164Z,19.45
2023-03-29T06:27:59.410Z,25.75
2023-03-29T06:30:28.920Z,15.70
2023-03-29T06:32:58.021Z,15.40
2023-03-29T06:35:26.533Z,11.48
2023-03-29T06:37:56.166Z,7.73
2023-03-29T06:40:23.219Z,8.70
2023-03-29T06:42:58.145Z,8.10
2023-03-29T06:45:27.494Z,9.13
2023-03-29T06:47:59.919Z,9.32
2023-03-29T06:50:27.290Z,9.40
2023-03-29T06:52:54.534Z,9.95
2023-03-29T06:55:22.891Z,9.55
2023-03-29T06:57:50.586Z,10.48
2023-03-29T07:00:19.355Z,10.48
2023-03-29T07:02:46.648Z,9.63
2023-03-29T07:05:17.139Z,11.25
2023-03-29T07:07:57.193Z,10.23
2023-03-29T07:10:32.385Z,10.93
2023-03-29T07:13:00.966Z,9.77
2023-03-29T07:15:29.488Z,8.50
2023-03-29T07:17:57.670Z,9.15
2023-03-29T07:20:29.527Z,6.07
2023-03-29T07:22:57.563Z,5.82
2023-03-29T07:25:25.249Z,4.22
2023-03-29T07:27:52.337Z,6.23
2023-03-29T07:30:32.046Z,4.10
2023-03-29T07:33:00.660Z,3.47
2023-03-29T07:35:30.939Z,7.63
2023-03-29T07:37:58.633Z,4.00
2023-03-29T07:40:26.431Z,5.00
2023-03-29T07:42:55.192Z,5.80
2023-03-29T07:45:26.676Z,4.82
2023-03-29T07:47:56.508Z,4.93
2023-03-29T07:50:23.966Z,4.30
2023-03-29T07:52:52.797Z,4.97
2023-03-29T07:55:20.690Z,3.72
2023-03-29T07:57:48.874Z,5.88
2023-03-29T08:00:16.963Z,4.85
2023-03-29T08:02:44.929Z,6.10
2023-03-29T08:05:19.013Z,7.80
2023-03-29T08:07:50.924Z,7.50
2023-03-29T08:10:20.681Z,4.25
2023-03-29T08:12:48.677Z,3.85
2023-03-29T08:15:16.603Z,2.72
2023-03-29T08:17:44.065Z,3.33
2023-03-29T08:20:13.213Z,3.30
2023-03-29T08:22:40.730Z,3.33
2023-03-29T08:25:08.128Z,2.45
2023-03-29T08:27:37.828Z,2.50
2023-03-29T08:30:05.323Z,2.63
2023-03-29T08:32:32.915Z,2.35
2023-03-29T08:35:01.844Z,3.03
2023-03-29T08:37:31.320Z,2.60
2023-03-29T08:40:11.214Z,2.05
2023-03-29T08:42:53.751Z,2.23
2023-03-29T08:45:25.678Z,1.77
2023-03-29T08:47:56.557Z,2.22
2023-03-29T08:50:32.874Z,2.30
2023-03-29T08:53:01.132Z,2.30
2023-03-29T08:55:31.935Z,2.23
2023-03-29T08:58:02.632Z,2.20
2023-03-29T09:00:33.585Z,2.10
2023-03-29T09:03:02.782Z,2.05
2023-03-29T09:05:34.502Z,2.05
2023-03-29T09:08:09.530Z,1.50
2023-03-29T09:10:42.590Z,2.13
2023-03-29T09:13:17.066Z,2.15
2023-03-29T09:15:49.553Z,2.17
2023-03-29T09:18:24.932Z,2.05
2023-03-29T09:20:57.141Z,1.63
2023-03-29T09:23:31.383Z,2.60
2023-03-29T09:26:00.316Z,1.95
2023-03-29T09:28:34.830Z,1.38
2023-03-29T09:31:06.473Z,2.08
2023-03-29T09:34:25.316Z,1.80
2023-03-29T09:36:53.712Z,2.60
2023-03-29T09:39:22.285Z,1.38
2023-03-29T09:41:51.831Z,1.90
2023-03-29T09:44:30.878Z,1.40
2023-03-29T09:47:02.937Z,2.07
2023-03-29T09:50:30.972Z,2.25
2023-03-29T09:56:44.523Z,1.67
2023-03-29T09:59:11.897Z,2.55
2023-03-29T10:01:41.956Z,1.87
2023-03-29T10:04:19.163Z,2.35
2023-03-29T10:06:55.578Z,2.35
2023-03-29T10:09:24.303Z,2.45
2023-03-29T10:11:52.576Z,2.80
2023-03-29T10:14:21.716Z,1.70
2023-03-29T10:16:57.958Z,2.25
2023-03-29T10:19:27.807Z,1.88
2023-03-29T10:21:55.772Z,2.20
2023-03-29T10:24:23.764Z,1.98
2023-03-29T10:26:56.071Z,2.90
2023-03-29T10:29:26.004Z,2.10
2023-03-29T10:31:54.795Z,2.45
2023-03-29T10:34:26.149Z,3.08
2023-03-29T10:36:56.099Z,2.55
2023-03-29T10:39:25.591Z,3.30
2023-03-29T10:41:53.307Z,2.30
2023-03-29T10:44:27.691Z,1.67
2023-03-29T10:46:56.318Z,1.77
2023-03-29T10:49:25.772Z,1.70
2023-03-29T10:51:53.094Z,1.60
2023-03-29T10:54:22.178Z,1.85
2023-03-29T10:56:52.742Z,1.60
2023-03-29T10:59:37.670Z,1.77
2023-03-29T11:02:24.693Z,1.83
2023-03-29T11:04:58.616Z,1.60
2023-03-29T11:07:28.868Z,1.90
2023-03-29T11:10:11.990Z,1.50
2023-03-29T11:12:41.865Z,1.52
2023-03-29T11:15:15.124Z,1.55
2023-03-29T11:17:53.317Z,1.33
2023-03-29T11:20:31.558Z,1.70
2023-03-29T11:23:07.748Z,1.58
2023-03-29T11:25:41.008Z,1.55
2023-03-29T11:28:12.537Z,1.30
2023-03-29T11:30:42.553Z,2.70
2023-03-29T11:33:16.874Z,1.23
2023-03-29T11:35:52.698Z,1.40
2023-03-29T11:38:23.827Z,1.58
2023-03-29T11:40:55.520Z,1.30
2023-03-29T11:43:26.445Z,1.10
2023-03-29T11:45:55.459Z,1.20
2023-03-29T11:48:29.514Z,1.50
2023-03-29T11:50:59.052Z,1.30
2023-03-29T11:53:29.216Z,1.40
2023-03-29T11:56:00.047Z,1.40
2023-03-29T11:58:47.077Z,1.45
2023-03-29T12:01:16.683Z,1.20
2023-03-29T12:04:24.223Z,1.25
2023-03-29T12:06:58.076Z,1.27
2023-03-29T12:09:29.127Z,1.20
2023-03-29T12:12:00.096Z,1.35
2023-03-29T12:14:29.627Z,1.30
2023-03-29T12:16:58.444Z,1.15
2023-03-29T12:19:29.103Z,1.20
2023-03-29T12:21:58.260Z,1.30
2023-03-29T12:24:27.008Z,0.90
2023-03-29T12:27:10.745Z,1.35
2023-03-29T12:29:44.610Z,0.93
2023-03-29T12:32:20.073Z,4.03
2023-03-29T12:34:54.923Z,1.80
2023-03-29T12:37:32.257Z,1.30
2023-03-29T12:40:10.838Z,0.70
2023-03-29T12:42:44.660Z,0.80
2023-03-29T12:45:15.142Z,0.85
2023-03-29T12:47:45.208Z,0.70
2023-03-29T12:50:17.519Z,1.35
2023-03-29T12:52:48.012Z,1.50
2023-03-29T12:55:21.390Z,0.60
2023-03-29T12:57:57.732Z,2.40
2023-03-29T13:00:27.568Z,1.57
2023-03-29T13:03:03.406Z,1.38
2023-03-29T13:05:33.107Z,0.82
2023-03-29T13:08:10.770Z,1.10
2023-03-29T13:10:39.693Z,0.80
2023-03-29T13:13:12.282Z,1.93
2023-03-29T13:15:39.711Z,0.75
2023-03-29T13:18:12.623Z,1.25
2023-03-29T13:20:45.836Z,1.77
2023-03-29T13:23:23.176Z,1.40
2023-03-29T13:25:59.102Z,2.10
2023-03-29T13:28:30.154Z,3.25
2023-03-29T13:30:59.115Z,2.42
2023-03-29T13:33:44.620Z,4.70
2023-03-29T13:36:16.765Z,3.58
2023-03-29T13:38:46.545Z,2.73
2023-03-29T13:41:30.782Z,2.13
2023-03-29T13:43:59.888Z,2.63
2023-03-29T13:46:37.701Z,2.50
2023-03-29T13:49:10.721Z,2.92
2023-03-29T13:51:39.512Z,1.67
2023-03-29T13:54:13.941Z,2.75
2023-03-29T13:56:51.198Z,2.67
2023-03-29T13:59:20.138Z,3.47
2023-03-29T14:01:50.688Z,1.65
2023-03-29T14:04:21.717Z,2.80
2023-03-29T14:06:51.954Z,2.22
2023-03-29T14:09:22.192Z,3.75
2023-03-29T14:11:49.685Z,2.33
2023-03-29T14:14:18.422Z,2.88
2023-03-29T14:16:45.476Z,3.50
2023-03-29T14:19:14.535Z,3.80
2023-03-29T14:21:42.798Z,3.67
2023-03-29T14:24:12.655Z,4.22
2023-03-29T14:26:43.895Z,4.78
2023-03-29T14:29:12.027Z,3.70
2023-03-29T14:31:41.905Z,3.97
2023-03-29T14:34:12.314Z,3.25
2023-03-29T14:36:39.692Z,2.08
2023-03-29T14:39:10.834Z,2.00
2023-03-29T14:41:38.900Z,2.27
2023-03-29T14:44:07.883Z,3.13
2023-03-29T14:46:35.259Z,2.55
2023-03-29T14:49:02.582Z,2.70
2023-03-29T14:51:34.482Z,2.40
2023-03-29T14:54:03.391Z,2.37
2023-03-29T14:56:32.605Z,3.30
2023-03-29T14:59:01.726Z,3.20
2023-03-29T15:01:31.471Z,2.80
2023-03-29T15:04:03.186Z,3.00
2023-03-29T15:06:30.779Z,2.50
2023-03-29T15:09:05.261Z,2.60
2023-03-29T15:11:34.481Z,2.47
2023-03-29T15:14:02.967Z,2.00
2023-03-29T15:16:33.039Z,2.47
2023-03-29T15:19:01.618Z,3.17
2023-03-29T15:21:31.169Z,12.30
2023-03-29T15:23:59.730Z,13.00
2023-03-29T15:26:31.323Z,12.45
2023-03-29T15:29:03.195Z,9.02
2023-03-29T15:31:35.136Z,5.17
2023-03-29T15:34:03.198Z,9.18
2023-03-29T15:36:31.601Z,6.55
2023-03-29T15:38:59.007Z,9.05
2023-03-29T15:41:27.282Z,11.48
2023-03-29T15:43:54.760Z,7.73
2023-03-29T15:46:22.271Z,12.65
2023-03-29T15:48:50.892Z,11.60
2023-03-29T15:51:17.903Z,12.38
2023-03-29T15:53:44.904Z,11.15
2023-03-29T15:56:15.878Z,6.20
2023-03-29T15:58:43.392Z,6.10
2023-03-29T16:01:13.907Z,6.93
2023-03-29T16:03:41.759Z,7.60
2023-03-29T16:06:12.122Z,3.63
2023-03-29T16:08:39.296Z,4.67
2023-03-29T16:11:07.113Z,4.72
2023-03-29T16:13:34.098Z,3.70
2023-03-29T16:16:01.517Z,5.68
2023-03-29T16:18:28.952Z,3.92
2023-03-29T16:20:56.940Z,4.10
2023-03-29T16:23:25.405Z,4.40
2023-03-29T16:25:52.485Z,7.63
2023-03-29T16:28:19.904Z,10.50
2023-03-29T16:30:46.940Z,10.30
2023-03-29T16:33:14.417Z,10.07
2023-03-29T16:35:50.038Z,7.63
2023-03-29T16:38:17.049Z,7.38
2023-03-29T16:40:45.428Z,8.63
2023-03-29T16:43:14.221Z,10.32
2023-03-29T16:45:41.319Z,6.80
2023-03-29T16:48:10.180Z,7.03
2023-03-29T16:50:37.783Z,6.50
2023-03-29T16:53:05.205Z,6.63
2023-03-29T16:55:33.620Z,6.90
2023-03-29T16:58:02.872Z,10.13
2023-03-29T17:00:29.910Z,10.93
2023-03-29T17:02:57.825Z,10.10
2023-03-29T17:05:28.367Z,10.80
2023-03-29T17:07:56.271Z,11.48
2023-03-29T17:10:23.584Z,13.43
2023-03-29T17:12:50.812Z,15.10
2023-03-29T17:15:19.225Z,15.82
2023-03-29T17:17:46.681Z,17.13
2023-03-29T17:20:14.130Z,14.65
2023-03-29T17:22:41.886Z,13.70
2023-03-29T17:25:10.033Z,7.28
2023-03-29T17:27:40.471Z,4.70
2023-03-29T17:30:08.466Z,5.30
2023-03-29T17:32:37.442Z,5.63
2023-03-29T17:35:05.150Z,5.97
2023-03-29T17:37:32.210Z,6.43
2023-03-29T17:39:59.290Z,7.15
2023-03-29T17:42:28.613Z,7.63
2023-03-29T17:44:55.861Z,8.60
2023-03-29T17:47:22.790Z,9.03
2023-03-29T17:49:51.270Z,9.60
2023-03-29T17:52:18.244Z,10.77
2023-03-29T17:54:45.696Z,13.63
2023-03-29T17:57:12.739Z,13.63
2023-03-29T17:59:41.261Z,12.23
2023-03-29T18:02:14.238Z,11.60
2023-03-29T18:04:41.419Z,10.77
2023-03-29T18:07:09.839Z,9.88
2023-03-29T18:09:37.234Z,10.20
2023-03-29T18:12:04.934Z,9.77
2023-03-29T18:14:31.863Z,9.57
2023-03-29T18:16:59.131Z,8.50
2023-03-29T18:19:26.713Z,9.05
2023-03-29T18:21:54.032Z,10.60
2023-03-29T18:24:23.217Z,11.23
2023-03-29T18:26:51.375Z,13.38
2023-03-29T18:29:20.161Z,15.57
2023-03-29T18:31:47.611Z,16.10
2023-03-29T18:34:14.950Z,16.00
2023-03-29T18:36:42.416Z,16.57
2023-03-29T18:39:09.826Z,16.33
2023-03-29T18:41:38.792Z,17.27
2023-03-29T18:44:07.838Z,15.02
2023-03-29T18:46:35.721Z,15.77
2023-03-29T18:49:04.977Z,21.37
2023-03-29T18:51:33.033Z,25.00
2023-03-29T18:54:00.872Z,21.77
2023-03-29T18:56:29.135Z,18.42
2023-03-29T18:58:58.144Z,16.05
2023-03-29T19:01:25.979Z,16.17
2023-03-29T19:03:53.282Z,15.55
2023-03-29T19:06:20.829Z,14.15
2023-03-29T19:08:48.173Z,15.57
2023-03-29T19:11:15.451Z,13.82
2023-03-29T19:13:43.180Z,12.67
2023-03-29T19:16:15.998Z,12.50
2023-03-29T19:18:43.817Z,11.77
2023-03-29T19:21:12.342Z,12.35
2023-03-29T19:23:41.061Z,12.32
2023-03-29T19:26:09.639Z,11.57
2023-03-29T19:28:36.689Z,10.75
2023-03-29T19:31:04.921Z,11.30
2023-03-29T19:33:34.389Z,10.00
2023-03-29T19:36:01.664Z,10.50
2023-03-29T19:38:29.226Z,10.70
2023-03-29T19:40:57.557Z,11.00
2023-03-29T19:43:25.176Z,11.50
2023-03-29T19:45:52.660Z,11.13
2023-03-29T19:48:23.809Z,11.30
2023-03-29T19:50:53.249Z,10.57
2023-03-29T19:53:21.483Z,13.38
2023-03-29T19:55:50.018Z,12.00
2023-03-29T19:58:17.383Z,19.98
2023-03-29T20:00:44.762Z,17.08
2023-03-29T20:03:14.327Z,17.57
2023-03-29T20:05:42.157Z,14.20
2023-03-29T20:08:11.183Z,14.43
2023-03-29T20:10:38.468Z,18.83
2023-03-29T20:13:06.982Z,19.27
2023-03-29T20:15:34.922Z,16.30
2023-03-29T20:18:02.592Z,11.82
2023-03-29T20:20:30.144Z,11.18
2023-03-29T20:23:04.535Z,11.70
2023-03-29T20:25:34.633Z,11.05
2023-03-29T20:28:01.765Z,9.60
2023-03-29T20:30:29.407Z,9.10
2023-03-29T20:32:56.551Z,8.50
2023-03-29T20:35:23.557Z,7.95
2023-03-29T20:37:52.128Z,8.30
2023-03-29T20:40:20.951Z,7.70
2023-03-29T20:42:49.457Z,7.13
2023-03-29T20:45:19.866Z,6.35
2023-03-29T20:47:50.505Z,7.22
2023-03-29T20:50:19.025Z,8.27
2023-03-29T20:52:46.527Z,8.03
2023-03-29T20:55:14.076Z,11.52
2023-03-29T20:57:42.335Z,10.77
2023-03-29T21:00:12.218Z,9.23
2023-03-29T21:02:39.598Z,8.75
2023-03-29T21:05:07.006Z,8.67
2023-03-29T21:07:34.897Z,7.90
2023-03-29T21:10:02.844Z,7.65
2023-03-29T21:12:29.963Z,6.25
2023-03-29T21:15:00.378Z,5.95
2023-03-29T21:17:28.806Z,6.10
2023-03-29T21:19:55.802Z,6.70
2023-03-29T21:22:24.711Z,6.90
2023-03-29T21:24:51.804Z,8.25
2023-03-29T21:27:19.110Z,8.18
2023-03-29T21:29:46.278Z,8.37
2023-03-29T21:32:13.294Z,8.15
2023-03-29T21:34:41.789Z,7.80
2023-03-29T21:37:08.830Z,7.68
2023-03-29T21:39:35.923Z,6.88
2023-03-29T21:42:03.398Z,6.47
2023-03-29T21:44:32.576Z,6.10
2023-03-29T21:47:01.760Z,6.40
2023-03-29T21:49:28.810Z,6.43
2023-03-29T21:51:57.242Z,7.15
2023-03-29T21:54:24.252Z,5.77
2023-03-29T21:56:51.249Z,5.97
2023-03-29T21:59:18.295Z,6.07
2023-03-29T22:01:45.680Z,5.13
2023-03-29T22:04:19.863Z,5.25
2023-03-29T22:06:52.890Z,5.93
2023-03-29T22:09:21.392Z,5.97
2023-03-29T22:11:48.727Z,5.38
2023-03-29T22:14:15.709Z,5.80
2023-03-29T22:16:45.743Z,6.03
2023-03-29T22:19:12.825Z,6.00
2023-03-29T22:21:39.933Z,4.90
2023-03-29T22:24:07.578Z,5.28
2023-03-29T22:26:36.077Z,5.50
2023-03-29T22:29:03.209Z,4.78
2023-03-29T22:31:30.444Z,4.83
2023-03-29T22:33:58.631Z,4.75
2023-03-29T22:36:26.697Z,4.60
2023-03-29T22:38:54.293Z,5.22
2023-03-29T22:41:26.280Z,4.78
2023-03-29T22:43:57.605Z,4.27
2023-03-29T22:46:24.706Z,4.30
2023-03-29T22:48:53.110Z,4.40
2023-03-29T22:51:21.101Z,4.38
2023-03-29T22:53:48.138Z,4.40
2023-03-29T22:56:15.591Z,4.90
2023-03-29T22:58:42.680Z,4.55
2023-03-29T23:01:11.522Z,5.03
2023-03-29T23:03:38.528Z,5.10
2023-03-29T23:06:06.338Z,4.90
2023-03-29T23:08:33.868Z,5.20
2023-03-29T23:11:01.966Z,5.25
2023-03-29T23:13:29.616Z,4.70
2023-03-29T23:15:58.218Z,3.88
2023-03-29T23:18:28.500Z,4.60
2023-03-29T23:20:57.059Z,3.73
2023-03-29T23:23:24.821Z,4.18
2023-03-29T23:25:52.819Z,4.20
2023-03-29T23:28:21.882Z,4.40
2023-03-29T23:30:54.351Z,3.83
2023-03-29T23:33:21.975Z,4.07
2023-03-29T23:35:50.729Z,3.75
2023-03-29T23:38:17.696Z,3.92
2023-03-29T23:40:44.679Z,4.10
2023-03-29T23:43:11.773Z,3.97
2023-03-29T23:45:39.682Z,3.57
2023-03-29T23:48:07.766Z,4.15
2023-03-29T23:50:34.927Z,3.92
2023-03-29T23:53:03.562Z,3.58
2023-03-29T23:55:32.087Z,3.20
2023-03-29T23:57:59.894Z,3.07
